createdAt,value
2018-08-06T00:00:52.216Z,17.20
2018-08-06T00:03:20.532Z,17.20
2018-08-06T00:05:48.793Z,17.20
2018-08-06T00:08:17.124Z,17.20
2018-08-06T00:10:45.448Z,17.20
2018-08-06T00:13:13.701Z,17.20
2018-08-06T00:15:42.103Z,17.20
2018-08-06T00:18:10.397Z,17.20
2018-08-06T00:20:38.656Z,17.30
2018-08-06T00:23:06.984Z,17.30
2018-08-06T00:25:35.254Z,17.30
2018-08-06T00:28:03.588Z,17.40
2018-08-06T00:30:31.840Z,17.40
2018-08-06T00:33:00.087Z,17.40
2018-08-06T00:35:28.368Z,17.40
2018-08-06T00:37:56.705Z,17.50
2018-08-06T00:40:24.973Z,17.50
2018-08-06T00:42:53.348Z,17.50
2018-08-06T00:45:21.940Z,17.40
2018-08-06T00:47:50.617Z,17.40
2018-08-06T00:50:18.901Z,17.40
2018-08-06T00:52:47.189Z,17.40
2018-08-06T00:55:17.083Z,17.30
2018-08-06T00:57:45.315Z,17.20
2018-08-06T01:00:16.298Z,17.10
2018-08-06T01:02:44.630Z,17.10
2018-08-06T01:05:14.000Z,17.10
2018-08-06T01:07:42.958Z,17.00
2018-08-06T01:10:15.281Z,17.00
2018-08-06T01:12:43.567Z,16.90
2018-08-06T01:15:14.460Z,16.90
2018-08-06T01:17:42.809Z,16.80
2018-08-06T01:20:12.321Z,16.80
2018-08-06T01:22:41.537Z,16.80
2018-08-06T01:25:09.813Z,16.70
2018-08-06T01:27:38.162Z,16.70
2018-08-06T01:30:08.132Z,16.60
2018-08-06T01:32:36.999Z,16.60
2018-08-06T01:35:06.095Z,16.50
2018-08-06T01:37:34.372Z,16.50
2018-08-06T01:40:02.635Z,16.40
2018-08-06T01:42:30.948Z,16.40
2018-08-06T01:44:59.224Z,16.40
2018-08-06T01:47:27.472Z,16.40
2018-08-06T01:49:55.761Z,16.30
2018-08-06T01:52:24.061Z,16.30
2018-08-06T01:54:52.423Z,16.30
2018-08-06T01:57:20.758Z,16.20
2018-08-06T01:59:49.052Z,16.20
2018-08-06T02:02:17.401Z,16.20
2018-08-06T02:07:13.804Z,16.10
2018-08-06T02:09:42.131Z,16.10
2018-08-06T02:12:10.408Z,16.00
2018-08-06T02:14:38.699Z,16.00
2018-08-06T02:17:07.060Z,15.90
2018-08-06T02:19:35.332Z,15.90
2018-08-06T02:22:03.664Z,15.90
2018-08-06T02:24:32.221Z,15.90
2018-08-06T02:27:00.494Z,15.80
2018-08-06T02:29:28.805Z,15.80
2018-08-06T02:31:57.109Z,15.80
2018-08-06T02:34:25.372Z,15.80
2018-08-06T02:36:53.710Z,15.70
2018-08-06T02:39:21.978Z,15.70
2018-08-06T02:41:50.299Z,15.70
2018-08-06T02:44:18.634Z,15.60
2018-08-06T02:46:46.933Z,15.60
2018-08-06T02:49:15.221Z,15.60
2018-08-06T02:51:43.550Z,15.50
2018-08-06T02:54:11.804Z,15.50
2018-08-06T02:56:40.080Z,15.50
2018-08-06T02:59:08.356Z,15.40
2018-08-06T03:01:36.676Z,15.40
2018-08-06T03:04:05.069Z,15.30
2018-08-06T03:06:33.361Z,15.30
2018-08-06T03:09:01.655Z,15.30
2018-08-06T03:11:29.914Z,15.30
2018-08-06T03:13:58.165Z,15.20
2018-08-06T03:16:26.452Z,15.20
2018-08-06T03:18:54.717Z,15.20
2018-08-06T03:21:23.016Z,15.10
2018-08-06T03:23:51.329Z,15.10
2018-08-06T03:26:19.593Z,15.10
2018-08-06T03:31:16.296Z,15.10
2018-08-06T03:33:44.608Z,15.10
2018-08-06T03:36:13.089Z,15.10
2018-08-06T03:38:41.365Z,15.00
2018-08-06T03:41:09.673Z,15.00
2018-08-06T03:46:06.159Z,14.90
2018-08-06T03:48:34.469Z,14.90
2018-08-06T03:51:02.753Z,14.90
2018-08-06T03:53:31.055Z,14.80
2018-08-06T03:55:59.334Z,14.80
2018-08-06T04:00:55.637Z,14.80
2018-08-06T04:03:24.063Z,14.80
2018-08-06T04:05:52.394Z,14.80
2018-08-06T04:08:20.739Z,14.80
2018-08-06T04:10:49.048Z,14.70
2018-08-06T04:13:17.344Z,14.70
2018-08-06T04:15:45.607Z,14.80
2018-08-06T04:18:13.857Z,14.80
2018-08-06T04:20:42.157Z,14.80
2018-08-06T04:23:10.464Z,14.80
2018-08-06T04:25:38.728Z,14.80
2018-08-06T04:28:07.030Z,14.90
2018-08-06T04:30:35.307Z,14.80
2018-08-06T04:33:03.663Z,14.80
2018-08-06T04:35:31.929Z,14.80
2018-08-06T04:38:00.193Z,14.90
2018-08-06T04:40:28.481Z,14.90
2018-08-06T04:42:56.756Z,14.90
2018-08-06T04:45:25.105Z,14.90
2018-08-06T04:47:53.485Z,14.90
2018-08-06T04:50:21.768Z,14.90
2018-08-06T04:52:50.045Z,14.90
2018-08-06T04:55:18.413Z,15.00
2018-08-06T04:57:46.728Z,15.00
2018-08-06T05:00:15.656Z,15.10
2018-08-06T05:02:44.524Z,15.10
2018-08-06T05:05:12.818Z,15.10
2018-08-06T05:07:41.182Z,15.20
2018-08-06T05:10:09.479Z,15.20
2018-08-06T05:12:37.757Z,15.30
2018-08-06T05:15:06.118Z,15.30
2018-08-06T05:17:34.382Z,15.30
2018-08-06T05:20:02.719Z,15.40
2018-08-06T05:22:31.110Z,15.40
2018-08-06T05:24:59.373Z,15.50
2018-08-06T05:27:27.766Z,15.50
2018-08-06T05:29:56.129Z,15.60
2018-08-06T05:32:24.449Z,15.60
2018-08-06T05:34:53.001Z,15.70
2018-08-06T05:37:21.337Z,15.80
2018-08-06T05:39:50.081Z,15.80
2018-08-06T05:42:18.380Z,15.90
2018-08-06T05:44:47.877Z,15.90
2018-08-06T05:47:16.185Z,15.90
2018-08-06T05:49:44.522Z,16.00
2018-08-06T05:52:12.800Z,16.10
2018-08-06T05:54:41.103Z,16.10
2018-08-06T05:57:09.439Z,16.20
2018-08-06T05:59:37.805Z,16.20
2018-08-06T06:02:06.129Z,16.30
2018-08-06T06:04:34.509Z,16.40
2018-08-06T06:07:02.832Z,16.40
2018-08-06T06:09:31.165Z,16.50
2018-08-06T06:11:59.448Z,16.50
2018-08-06T06:14:27.780Z,16.60
2018-08-06T06:17:02.520Z,16.70
2018-08-06T06:19:30.808Z,16.70
2018-08-06T06:24:27.940Z,16.90
2018-08-06T06:26:56.197Z,16.90
2018-08-06T06:29:24.512Z,17.10
2018-08-06T06:31:52.793Z,17.20
2018-08-06T06:34:21.110Z,17.20
2018-08-06T06:36:49.414Z,17.40
2018-08-06T06:39:17.703Z,17.50
2018-08-06T06:41:46.036Z,17.70
2018-08-06T06:44:14.256Z,17.90
2018-08-06T06:46:42.501Z,18.10
2018-08-06T06:49:11.084Z,18.20
2018-08-06T06:51:39.389Z,18.40
2018-08-06T06:54:07.920Z,18.60
2018-08-06T06:56:36.223Z,18.70
2018-08-06T06:59:04.552Z,18.80
2018-08-06T07:01:32.913Z,18.90
2018-08-06T07:04:01.238Z,19.10
2018-08-06T07:06:29.563Z,19.20
2018-08-06T07:08:57.840Z,19.30
2018-08-06T07:11:26.204Z,19.50
2018-08-06T07:13:54.548Z,19.60
2018-08-06T07:16:22.813Z,19.90
2018-08-06T07:18:51.125Z,20.20
2018-08-06T07:21:19.397Z,20.50
2018-08-06T07:23:47.724Z,20.80
2018-08-06T07:26:15.986Z,21.00
2018-08-06T07:28:44.360Z,21.20
2018-08-06T07:31:12.698Z,21.30
2018-08-06T07:33:41.108Z,21.30
2018-08-06T07:36:09.492Z,21.30
2018-08-06T07:38:37.871Z,21.40
2018-08-06T07:41:06.138Z,21.40
2018-08-06T07:43:34.449Z,21.40
2018-08-06T07:46:02.817Z,21.50
2018-08-06T07:48:31.209Z,21.50
2018-08-06T07:50:59.576Z,21.60
2018-08-06T07:53:27.924Z,21.60
2018-08-06T07:55:56.290Z,21.70
2018-08-06T07:58:24.658Z,21.80
2018-08-06T08:00:53.058Z,21.90
2018-08-06T08:03:21.431Z,22.00
2018-08-06T08:05:49.748Z,22.10
2018-08-06T08:08:18.048Z,22.20
2018-08-06T08:10:46.501Z,22.30
2018-08-06T08:13:14.844Z,22.50
2018-08-06T08:15:43.150Z,22.60
2018-08-06T08:18:11.506Z,22.80
2018-08-06T08:20:39.830Z,22.90
2018-08-06T08:23:08.114Z,23.00
2018-08-06T08:25:36.426Z,23.10
2018-08-06T08:28:04.801Z,23.30
2018-08-06T08:30:33.178Z,23.40
2018-08-06T08:33:01.464Z,23.60
2018-08-06T08:35:31.125Z,23.70
2018-08-06T08:37:59.493Z,23.90
2018-08-06T08:40:27.972Z,24.00
2018-08-06T08:42:56.346Z,24.20
2018-08-06T08:45:24.698Z,24.30
2018-08-06T08:47:53.143Z,24.40
2018-08-06T08:50:21.470Z,24.60
2018-08-06T08:52:50.024Z,24.90
2018-08-06T08:55:19.269Z,25.20
2018-08-06T08:57:47.562Z,25.60
2018-08-06T09:00:16.951Z,26.10
2018-08-06T09:02:46.640Z,26.50
2018-08-06T09:05:15.543Z,27.00
2018-08-06T09:07:43.941Z,27.50
2018-08-06T09:10:13.708Z,27.90
2018-08-06T09:12:42.486Z,28.40
2018-08-06T09:15:17.354Z,28.90
2018-08-06T09:17:45.630Z,29.40
2018-08-06T09:20:13.945Z,29.80
2018-08-06T09:25:12.028Z,30.40
2018-08-06T09:27:41.788Z,30.60
2018-08-06T09:30:13.294Z,31.00
2018-08-06T09:32:42.864Z,31.20
2018-08-06T09:35:11.320Z,31.50
2018-08-06T09:37:40.247Z,31.80
2018-08-06T09:40:11.044Z,32.10
2018-08-06T09:42:39.840Z,32.50
2018-08-06T09:45:09.997Z,32.70
2018-08-06T09:47:38.373Z,32.90
2018-08-06T09:50:08.278Z,32.90
2018-08-06T09:52:36.792Z,33.00
2018-08-06T09:55:06.701Z,33.00
2018-08-06T09:57:35.032Z,33.10
2018-08-06T10:00:03.985Z,33.20
2018-08-06T10:02:32.454Z,33.60
2018-08-06T10:05:00.754Z,33.80
2018-08-06T10:07:29.157Z,34.00
2018-08-06T10:09:57.461Z,34.20
2018-08-06T10:12:25.710Z,34.30
2018-08-06T10:14:54.207Z,34.50
2018-08-06T10:17:22.545Z,34.40
2018-08-06T10:19:50.825Z,34.50
2018-08-06T10:22:19.106Z,34.50
2018-08-06T10:24:47.480Z,34.30
2018-08-06T10:27:16.014Z,34.10
2018-08-06T10:29:44.254Z,33.90
2018-08-06T10:32:12.598Z,33.70
2018-08-06T10:34:40.860Z,33.60
2018-08-06T10:37:09.217Z,33.50
2018-08-06T10:39:37.446Z,33.40
2018-08-06T10:42:05.837Z,33.40
2018-08-06T10:44:34.181Z,33.40
2018-08-06T10:47:02.488Z,33.60
2018-08-06T10:49:30.766Z,33.80
2018-08-06T10:54:27.093Z,34.20
2018-08-06T10:57:01.833Z,34.40
2018-08-06T10:59:30.384Z,34.50
2018-08-06T11:01:58.800Z,34.60
2018-08-06T11:04:27.411Z,34.80
2018-08-06T11:06:55.831Z,35.00
2018-08-06T11:09:24.124Z,35.30
2018-08-06T11:11:52.581Z,35.80
2018-08-06T11:14:21.129Z,36.20
2018-08-06T11:16:49.378Z,36.50
2018-08-06T11:19:17.737Z,36.80
2018-08-06T11:21:46.017Z,37.10
2018-08-06T11:24:14.466Z,37.40
2018-08-06T11:26:42.964Z,37.60
2018-08-06T11:29:11.438Z,37.90
2018-08-06T11:31:39.704Z,38.00
2018-08-06T11:34:08.118Z,38.10
2018-08-06T11:36:36.511Z,38.30
2018-08-06T11:39:07.228Z,38.40
2018-08-06T11:41:35.574Z,38.60
2018-08-06T11:44:03.902Z,38.80
2018-08-06T11:46:32.181Z,38.90
2018-08-06T11:51:28.517Z,39.30
2018-08-06T11:53:56.865Z,39.40
2018-08-06T11:56:25.436Z,39.50
2018-08-06T11:58:53.737Z,39.60
2018-08-06T12:01:22.144Z,39.60
2018-08-06T12:03:50.408Z,39.50
2018-08-06T12:06:18.680Z,39.50
2018-08-06T12:08:48.884Z,39.60
2018-08-06T12:11:17.249Z,39.70
2018-08-06T12:13:45.643Z,39.90
2018-08-06T12:16:13.904Z,40.00
2018-08-06T12:18:42.203Z,40.20
2018-08-06T12:21:10.667Z,40.30
2018-08-06T12:23:38.990Z,40.30
2018-08-06T12:26:07.469Z,40.40
2018-08-06T12:28:35.701Z,40.50
2018-08-06T12:31:03.984Z,40.60
2018-08-06T12:33:32.286Z,40.70
2018-08-06T12:36:00.629Z,40.70
2018-08-06T12:39:37.452Z,40.60
2018-08-06T12:42:05.845Z,40.60
2018-08-06T12:44:34.127Z,40.60
2018-08-06T12:47:02.534Z,40.70
2018-08-06T12:49:30.853Z,40.80
2018-08-06T12:51:59.183Z,41.00
2018-08-06T12:54:27.488Z,41.20
2018-08-06T12:56:55.798Z,41.40
2018-08-06T12:59:24.153Z,41.50
2018-08-06T13:01:52.476Z,41.50
2018-08-06T13:04:20.729Z,41.30
2018-08-06T13:06:50.418Z,41.30
2018-08-06T13:11:46.811Z,41.60
2018-08-06T13:14:15.682Z,41.70
2018-08-06T13:16:44.729Z,41.90
2018-08-06T13:19:12.961Z,41.90
2018-08-06T13:21:41.227Z,41.90
2018-08-06T13:24:09.775Z,41.70
2018-08-06T13:26:38.098Z,41.40
2018-08-06T13:29:06.853Z,41.20
2018-08-06T13:31:35.209Z,41.10
2018-08-06T13:34:03.441Z,41.20
2018-08-06T13:36:31.735Z,41.30
2018-08-06T13:38:59.995Z,41.30
2018-08-06T13:41:28.320Z,41.30
2018-08-06T13:43:56.605Z,41.40
2018-08-06T13:46:24.977Z,41.50
2018-08-06T13:48:54.021Z,41.60
2018-08-06T13:51:22.325Z,41.90
2018-08-06T13:53:50.626Z,42.00
2018-08-06T13:56:18.901Z,42.00
2018-08-06T13:58:47.188Z,42.00
2018-08-06T14:01:15.605Z,41.80
2018-08-06T14:06:12.129Z,41.60
2018-08-06T14:08:40.393Z,41.60
2018-08-06T14:11:08.883Z,41.70
2018-08-06T14:13:37.562Z,41.90
2018-08-06T14:16:05.904Z,42.00
2018-08-06T14:18:34.198Z,42.00
2018-08-06T14:21:02.437Z,42.00
2018-08-06T14:23:30.804Z,41.90
2018-08-06T14:25:59.202Z,41.90
2018-08-06T14:28:27.420Z,41.80
2018-08-06T14:30:55.664Z,41.60
2018-08-06T14:33:24.072Z,41.40
2018-08-06T14:35:52.504Z,41.20
2018-08-06T14:38:20.869Z,41.00
2018-08-06T14:40:49.229Z,40.80
2018-08-06T14:43:17.478Z,40.70
2018-08-06T14:45:46.076Z,40.40
2018-08-06T14:48:14.369Z,39.80
2018-08-06T14:50:42.807Z,39.00
2018-08-06T14:53:11.221Z,38.10
2018-08-06T14:55:39.625Z,37.40
2018-08-06T14:58:08.141Z,36.70
2018-08-06T15:00:36.455Z,36.00
2018-08-06T15:03:04.985Z,35.40
2018-08-06T15:08:01.880Z,34.60
2018-08-06T15:10:30.142Z,34.30
2018-08-06T15:12:58.433Z,34.00
2018-08-06T15:15:26.815Z,33.80
2018-08-06T15:17:55.013Z,33.50
2018-08-06T15:20:23.417Z,33.20
2018-08-06T15:22:51.811Z,32.90
2018-08-06T15:25:21.940Z,32.70
2018-08-06T15:27:50.513Z,32.50
2018-08-06T15:30:19.319Z,32.30
2018-08-06T15:32:47.613Z,32.20
2018-08-06T15:35:15.925Z,32.10
2018-08-06T15:37:44.865Z,32.00
2018-08-06T15:40:15.433Z,31.90
2018-08-06T15:42:43.966Z,31.80
2018-08-06T15:45:12.880Z,31.60
2018-08-06T15:47:41.937Z,31.50
2018-08-06T15:50:13.228Z,31.40
2018-08-06T15:52:41.578Z,31.30
2018-08-06T15:55:09.925Z,31.30
2018-08-06T15:57:38.449Z,31.20
2018-08-06T16:00:09.495Z,31.10
2018-08-06T16:02:37.776Z,31.10
2018-08-06T16:05:07.160Z,31.00
2018-08-06T16:07:35.513Z,31.00
2018-08-06T16:10:03.873Z,31.00
2018-08-06T16:12:32.298Z,31.00
2018-08-06T16:15:00.744Z,30.90
2018-08-06T16:17:29.028Z,30.90
2018-08-06T16:19:57.384Z,30.80
2018-08-06T16:22:25.768Z,30.80
2018-08-06T16:24:54.291Z,30.70
2018-08-06T16:27:22.556Z,30.60
2018-08-06T16:29:50.892Z,30.60
2018-08-06T16:32:19.217Z,30.40
2018-08-06T16:34:47.480Z,30.30
2018-08-06T16:37:15.941Z,30.20
2018-08-06T16:39:44.316Z,30.00
2018-08-06T16:42:12.809Z,29.80
2018-08-06T16:44:41.424Z,29.60
2018-08-06T16:47:09.707Z,29.50
2018-08-06T16:49:37.937Z,29.40
2018-08-06T16:52:06.457Z,29.30
2018-08-06T16:54:34.833Z,29.30
2018-08-06T16:57:03.197Z,29.30
2018-08-06T16:59:31.588Z,29.30
2018-08-06T17:01:59.921Z,29.30
2018-08-06T17:04:28.239Z,29.20
2018-08-06T17:06:56.650Z,29.20
2018-08-06T17:09:25.005Z,29.20
2018-08-06T17:11:53.449Z,29.10
2018-08-06T17:14:21.928Z,29.10
2018-08-06T17:16:50.256Z,29.00
2018-08-06T17:19:18.592Z,29.00
2018-08-06T17:21:46.924Z,28.90
2018-08-06T17:24:15.189Z,28.80
2018-08-06T17:26:43.462Z,28.80
2018-08-06T17:29:11.917Z,28.70
2018-08-06T17:31:40.218Z,28.60
2018-08-06T17:34:08.752Z,28.50
2018-08-06T17:36:37.024Z,28.50
2018-08-06T17:39:08.691Z,28.40
2018-08-06T17:41:37.068Z,28.40
2018-08-06T17:44:05.357Z,28.20
2018-08-06T17:46:33.714Z,28.20
2018-08-06T17:49:02.297Z,28.20
2018-08-06T17:51:30.609Z,28.20
2018-08-06T17:53:58.978Z,28.10
2018-08-06T17:56:27.442Z,28.00
2018-08-06T17:58:55.709Z,27.80
2018-08-06T18:01:23.973Z,27.70
2018-08-06T18:03:52.308Z,27.50
2018-08-06T18:06:20.620Z,27.30
2018-08-06T18:08:49.095Z,27.10
2018-08-06T18:11:17.335Z,26.90
2018-08-06T18:13:45.631Z,26.70
2018-08-06T18:16:14.073Z,26.50
2018-08-06T18:18:42.344Z,26.30
2018-08-06T18:21:10.627Z,26.10
2018-08-06T18:23:38.978Z,26.00
2018-08-06T18:26:07.312Z,25.80
2018-08-06T18:28:35.582Z,25.60
2018-08-06T18:31:03.933Z,25.40
2018-08-06T18:33:32.304Z,25.20
2018-08-06T18:36:00.589Z,25.10
2018-08-06T18:38:28.909Z,25.00
2018-08-06T18:40:57.181Z,24.80
2018-08-06T18:43:25.440Z,24.70
2018-08-06T18:45:53.817Z,24.60
2018-08-06T18:48:22.073Z,24.50
2018-08-06T18:50:50.392Z,24.40
2018-08-06T18:53:18.753Z,24.30
2018-08-06T18:55:47.062Z,24.20
2018-08-06T18:58:15.341Z,24.10
2018-08-06T19:00:44.505Z,23.90
2018-08-06T19:03:12.921Z,23.80
2018-08-06T19:05:41.229Z,23.80
2018-08-06T19:08:09.542Z,23.70
2018-08-06T19:10:37.882Z,23.60
2018-08-06T19:13:11.561Z,23.50
2018-08-06T19:15:39.842Z,23.40
2018-08-06T19:18:13.476Z,23.30
2018-08-06T19:20:41.803Z,23.20
2018-08-06T19:23:10.125Z,23.10
2018-08-06T19:25:38.454Z,23.00
2018-08-06T19:28:06.779Z,22.90
2018-08-06T19:30:40.342Z,22.80
2018-08-06T19:33:08.632Z,22.70
2018-08-06T19:35:36.965Z,22.70
2018-08-06T19:40:33.257Z,22.60
2018-08-06T19:43:07.079Z,22.50
2018-08-06T19:45:35.529Z,22.50
2018-08-06T19:48:03.915Z,22.40
2018-08-06T19:50:46.721Z,22.40
2018-08-06T19:53:15.010Z,22.30
2018-08-06T19:55:48.558Z,22.30
2018-08-06T19:58:16.867Z,22.20
2018-08-06T20:00:45.125Z,22.20
2018-08-06T20:03:13.544Z,22.20
2018-08-06T20:05:41.809Z,22.20
2018-08-06T20:08:10.149Z,22.10
2018-08-06T20:10:38.679Z,22.10
2018-08-06T20:13:06.985Z,22.10
2018-08-06T20:15:35.336Z,22.00
2018-08-06T20:18:03.654Z,21.90
2018-08-06T20:20:31.980Z,21.90
2018-08-06T20:23:00.398Z,21.80
2018-08-06T20:25:28.712Z,21.80
2018-08-06T20:27:56.973Z,21.70
2018-08-06T20:30:25.283Z,21.70
2018-08-06T20:32:53.645Z,21.60
2018-08-06T20:35:22.002Z,21.50
2018-08-06T20:37:50.234Z,21.50
2018-08-06T20:40:18.541Z,21.50
2018-08-06T20:42:46.894Z,21.40
2018-08-06T20:45:16.944Z,21.30
2018-08-06T20:50:15.343Z,21.30
2018-08-06T20:52:43.954Z,21.20
2018-08-06T20:55:12.553Z,21.10
2018-08-06T20:57:41.245Z,21.10
2018-08-06T21:00:16.660Z,21.10
2018-08-06T21:02:45.462Z,21.00
2018-08-06T21:05:13.661Z,20.90
2018-08-06T21:07:42.102Z,20.90
2018-08-06T21:10:12.188Z,20.80
2018-08-06T21:12:40.552Z,20.70
2018-08-06T21:15:09.857Z,20.70
2018-08-06T21:17:38.377Z,20.70
2018-08-06T21:20:08.834Z,20.60
2018-08-06T21:22:37.145Z,20.50
2018-08-06T21:25:06.429Z,20.50
2018-08-06T21:27:34.749Z,20.50
2018-08-06T21:30:03.119Z,20.50
2018-08-06T21:32:31.433Z,20.40
2018-08-06T21:34:59.764Z,20.40
2018-08-06T21:37:28.076Z,20.30
2018-08-06T21:39:56.351Z,20.30
2018-08-06T21:42:24.653Z,20.20
2018-08-06T21:44:53.414Z,20.20
2018-08-06T21:47:21.857Z,20.20
2018-08-06T21:49:50.108Z,20.20
2018-08-06T21:52:18.427Z,20.10
2018-08-06T21:54:46.772Z,20.10
2018-08-06T21:57:15.065Z,20.10
2018-08-06T21:59:43.371Z,20.00
2018-08-06T22:02:11.697Z,20.00
2018-08-06T22:04:39.960Z,19.90
2018-08-06T22:07:08.240Z,19.90
2018-08-06T22:09:36.553Z,19.80
2018-08-06T22:12:04.796Z,19.80
2018-08-06T22:14:33.193Z,19.70
2018-08-06T22:17:01.486Z,19.70
2018-08-06T22:19:29.818Z,19.60
2018-08-06T22:21:58.065Z,19.50
2018-08-06T22:24:26.348Z,19.50
2018-08-06T22:26:54.696Z,19.50
2018-08-06T22:29:23.010Z,19.40
2018-08-06T22:31:51.297Z,19.40
2018-08-06T22:34:19.630Z,19.30
2018-08-06T22:36:47.883Z,19.30
2018-08-06T22:39:16.233Z,19.20
2018-08-06T22:41:44.524Z,19.20
2018-08-06T22:44:12.832Z,19.10
2018-08-06T22:46:41.138Z,19.10
2018-08-06T22:49:09.404Z,19.00
2018-08-06T22:51:44.492Z,19.00
2018-08-06T22:54:12.784Z,19.00
2018-08-06T22:56:41.093Z,18.90
2018-08-06T22:59:09.389Z,18.90
2018-08-06T23:01:37.685Z,18.80
2018-08-06T23:04:06.049Z,18.70
2018-08-06T23:06:34.404Z,18.80
2018-08-06T23:09:02.752Z,18.70
2018-08-06T23:11:31.018Z,18.60
2018-08-06T23:13:59.290Z,18.60
2018-08-06T23:16:27.594Z,18.60
2018-08-06T23:18:55.848Z,18.50
2018-08-06T23:21:24.147Z,18.50
2018-08-06T23:23:52.458Z,18.50
2018-08-06T23:26:20.706Z,18.40
2018-08-06T23:28:48.929Z,18.40
2018-08-06T23:31:17.233Z,18.40
2018-08-06T23:33:45.500Z,18.30
2018-08-06T23:36:13.759Z,18.30
2018-08-06T23:38:42.064Z,18.20
2018-08-06T23:41:10.351Z,18.20
2018-08-06T23:43:38.707Z,18.20
2018-08-06T23:46:06.992Z,18.10
2018-08-06T23:48:35.261Z,18.10
2018-08-06T23:51:03.566Z,18.10
2018-08-06T23:53:31.845Z,18.00
2018-08-06T23:58:28.112Z,18.00
